createdAt,value
2019-01-04T00:00:16.754Z,260
2019-01-04T00:01:16.654Z,260
2019-01-04T00:02:16.570Z,260
2019-01-04T00:03:16.707Z,260
2019-01-04T00:04:16.692Z,260
2019-01-04T00:05:16.489Z,260
2019-01-04T00:06:16.570Z,260
2019-01-04T00:07:16.555Z,260
2019-01-04T00:08:16.630Z,260
2019-01-04T00:09:16.554Z,260
2019-01-04T00:10:16.579Z,260
2019-01-04T00:11:16.498Z,260
2019-01-04T00:12:16.591Z,260
2019-01-04T00:13:16.543Z,260
2019-01-04T00:14:16.625Z,260
2019-01-04T00:15:16.642Z,260
2019-01-04T00:16:16.500Z,260
2019-01-04T00:17:16.505Z,260
2019-01-04T00:18:16.556Z,260
2019-01-04T00:19:16.629Z,260
2019-01-04T00:20:16.561Z,260
2019-01-04T00:21:16.577Z,260
2019-01-04T00:22:16.515Z,260
2019-01-04T00:23:16.549Z,260
2019-01-04T00:24:16.680Z,260.5
2019-01-04T00:25:16.673Z,260.2
2019-01-04T00:26:16.629Z,260.1
2019-01-04T00:27:16.552Z,260.1
2019-01-04T00:28:16.555Z,260
2019-01-04T00:29:16.575Z,260
2019-01-04T00:30:16.627Z,260
2019-01-04T00:31:16.563Z,260
2019-01-04T00:32:16.572Z,260
2019-01-04T00:33:16.567Z,260
2019-01-04T00:34:16.562Z,260
2019-01-04T00:35:16.584Z,260
2019-01-04T00:36:16.585Z,260
2019-01-04T00:37:16.573Z,260
2019-01-04T00:38:16.570Z,260
2019-01-04T00:39:16.577Z,260
2019-01-04T00:40:16.603Z,260
2019-01-04T00:41:16.578Z,260
2019-01-04T00:42:16.588Z,260
2019-01-04T00:43:16.833Z,260
2019-01-04T00:44:16.528Z,260
2019-01-04T00:45:16.564Z,260
2019-01-04T00:46:16.555Z,260
2019-01-04T00:47:16.563Z,260
2019-01-04T00:48:16.640Z,260
2019-01-04T00:49:16.488Z,260
2019-01-04T00:50:16.699Z,260.6
2019-01-04T00:51:16.642Z,260.3
2019-01-04T00:52:16.585Z,260.1
2019-01-04T00:53:16.564Z,260.1
2019-01-04T00:54:16.575Z,260
2019-01-04T00:55:16.470Z,260
2019-01-04T00:56:16.560Z,260
2019-01-04T00:57:16.582Z,260
2019-01-04T00:58:16.554Z,260
2019-01-04T00:59:16.643Z,260
2019-01-04T01:00:16.497Z,260
2019-01-04T01:01:16.543Z,260
2019-01-04T01:02:16.548Z,260
2019-01-04T01:03:16.560Z,260
2019-01-04T01:04:16.610Z,260
2019-01-04T01:05:16.505Z,260
2019-01-04T01:06:16.627Z,260
2019-01-04T01:07:17.853Z,260
2019-01-04T01:08:16.551Z,260
2019-01-04T01:09:16.548Z,260
2019-01-04T01:10:16.536Z,260
2019-01-04T01:11:16.559Z,260
2019-01-04T01:12:16.552Z,260
2019-01-04T01:13:16.554Z,260
2019-01-04T01:14:16.558Z,260
2019-01-04T01:15:16.542Z,260
2019-01-04T01:16:16.567Z,260
2019-01-04T01:17:16.554Z,260
2019-01-04T01:18:16.576Z,260
2019-01-04T01:19:16.546Z,260
2019-01-04T01:20:16.541Z,260
2019-01-04T01:21:16.637Z,260
2019-01-04T01:22:16.497Z,260
2019-01-04T01:23:16.602Z,260
2019-01-04T01:24:16.617Z,260
2019-01-04T01:25:16.548Z,260
2019-01-04T01:26:16.550Z,260
2019-01-04T01:27:16.561Z,260
2019-01-04T01:28:16.487Z,260
2019-01-04T01:29:16.535Z,260
2019-01-04T01:30:16.533Z,260
2019-01-04T01:31:16.569Z,260
2019-01-04T01:32:16.621Z,260
2019-01-04T01:33:16.461Z,260
2019-01-04T01:34:16.602Z,260
2019-01-04T01:35:16.600Z,260
2019-01-04T01:36:16.506Z,260
2019-01-04T01:37:16.546Z,260
2019-01-04T01:38:16.477Z,260
2019-01-04T01:39:16.541Z,260
2019-01-04T01:40:18.014Z,260
2019-01-04T01:41:16.550Z,260
2019-01-04T01:42:16.529Z,260
2019-01-04T01:43:16.576Z,260
2019-01-04T01:44:16.478Z,260
2019-01-04T01:45:16.522Z,260.5
2019-01-04T01:46:16.537Z,260.2
2019-01-04T01:47:16.596Z,260.1
2019-01-04T01:48:16.560Z,260
2019-01-04T01:49:16.462Z,260
2019-01-04T01:50:16.573Z,260
2019-01-04T01:51:16.535Z,260.9
2019-01-04T01:52:16.604Z,261
2019-01-04T01:53:16.533Z,260.5
2019-01-04T01:54:16.480Z,260.2
2019-01-04T01:55:16.525Z,260.1
2019-01-04T01:56:16.509Z,260
2019-01-04T01:57:16.587Z,260
2019-01-04T01:58:16.599Z,260
2019-01-04T01:59:16.587Z,260
2019-01-04T02:00:16.489Z,260
2019-01-04T02:01:16.525Z,260
2019-01-04T02:02:16.531Z,260
2019-01-04T02:03:16.505Z,260
2019-01-04T02:04:16.594Z,260
2019-01-04T02:05:16.473Z,260
2019-01-04T02:06:16.525Z,260
2019-01-04T02:07:16.510Z,260
2019-01-04T02:08:16.578Z,260
2019-01-04T02:09:16.546Z,260
2019-01-04T02:10:16.458Z,260
2019-01-04T02:11:16.489Z,260
2019-01-04T02:12:16.594Z,260
2019-01-04T02:13:16.533Z,260
2019-01-04T02:14:16.519Z,260
2019-01-04T02:15:16.513Z,260
2019-01-04T02:16:16.530Z,260
2019-01-04T02:17:16.515Z,260
2019-01-04T02:18:16.533Z,260
2019-01-04T02:19:16.515Z,260
2019-01-04T02:20:16.582Z,260
2019-01-04T02:21:16.510Z,260
2019-01-04T02:22:16.520Z,260
2019-01-04T02:23:16.524Z,260
2019-01-04T02:24:16.611Z,260
2019-01-04T02:25:16.596Z,260
2019-01-04T02:26:16.504Z,260
2019-01-04T02:27:16.451Z,260
2019-01-04T02:28:16.531Z,260
2019-01-04T02:29:16.513Z,260
2019-01-04T02:30:16.599Z,260
2019-01-04T02:31:16.509Z,260
2019-01-04T02:32:17.070Z,260
2019-01-04T02:33:16.475Z,260
2019-01-04T02:34:16.518Z,260
2019-01-04T02:35:16.585Z,260
2019-01-04T02:36:16.601Z,260
2019-01-04T02:37:16.607Z,260
2019-01-04T02:38:16.480Z,260
2019-01-04T02:39:16.531Z,260
2019-01-04T02:40:16.516Z,260
2019-01-04T02:41:16.576Z,260
2019-01-04T02:42:16.494Z,260
2019-01-04T02:43:16.521Z,260
2019-01-04T02:44:16.472Z,260
2019-01-04T02:45:16.526Z,260
2019-01-04T02:46:16.584Z,260
2019-01-04T02:47:16.542Z,260
2019-01-04T02:48:16.495Z,260
2019-01-04T02:49:16.486Z,260
2019-01-04T02:50:16.520Z,260
2019-01-04T02:51:16.497Z,260
2019-01-04T02:52:16.590Z,260
2019-01-04T02:53:16.589Z,260
2019-01-04T02:54:16.423Z,260
2019-01-04T02:55:16.448Z,260
2019-01-04T02:56:16.495Z,260
2019-01-04T02:57:16.509Z,260
2019-01-04T02:58:16.616Z,260
2019-01-04T02:59:16.496Z,260
2019-01-04T03:00:16.448Z,260
2019-01-04T03:01:16.508Z,260
2019-01-04T03:02:16.520Z,260
2019-01-04T03:03:16.565Z,260
2019-01-04T03:04:16.505Z,260
2019-01-04T03:05:16.446Z,260
2019-01-04T03:06:16.540Z,260
2019-01-04T03:07:16.470Z,260
2019-01-04T03:08:16.593Z,260
2019-01-04T03:09:16.616Z,260
2019-01-04T03:10:16.479Z,260
2019-01-04T03:11:16.460Z,260
2019-01-04T03:12:16.526Z,260
2019-01-04T03:13:16.587Z,260
2019-01-04T03:14:16.490Z,260
2019-01-04T03:15:16.498Z,260
2019-01-04T03:16:16.420Z,260
2019-01-04T03:17:16.454Z,260.5
2019-01-04T03:18:16.605Z,260.2
2019-01-04T03:19:16.511Z,260.1
2019-01-04T03:20:16.492Z,260
2019-01-04T03:21:16.590Z,260
2019-01-04T03:22:16.481Z,260
2019-01-04T03:23:16.479Z,260
2019-01-04T03:24:16.550Z,260
2019-01-04T03:25:16.521Z,260
2019-01-04T03:26:16.512Z,260.9
2019-01-04T03:27:16.423Z,260.4
2019-01-04T03:28:16.518Z,260.2
2019-01-04T03:29:16.547Z,260.1
2019-01-04T03:30:16.594Z,260
2019-01-04T03:31:16.513Z,260
2019-01-04T03:32:16.513Z,260
2019-01-04T03:33:16.468Z,260
2019-01-04T03:34:16.487Z,260
2019-01-04T03:35:16.499Z,260
2019-01-04T03:36:16.490Z,260
2019-01-04T03:37:17.182Z,260
2019-01-04T03:38:16.439Z,260.5
2019-01-04T03:39:16.477Z,260.2
2019-01-04T03:40:16.582Z,260.1
2019-01-04T03:41:16.461Z,260.1
2019-01-04T03:42:16.553Z,260
2019-01-04T03:43:16.483Z,260
2019-01-04T03:44:16.571Z,260
2019-01-04T03:45:16.467Z,260
2019-01-04T03:46:16.503Z,260
2019-01-04T03:47:16.522Z,260
2019-01-04T03:48:16.540Z,260
2019-01-04T03:49:16.458Z,260
2019-01-04T03:50:16.484Z,260
2019-01-04T03:51:16.464Z,260.5
2019-01-04T03:52:16.458Z,260.2
2019-01-04T03:53:16.552Z,260.1
2019-01-04T03:54:16.449Z,260.1
2019-01-04T03:55:16.400Z,260
2019-01-04T03:56:16.468Z,260
2019-01-04T03:57:16.455Z,260
2019-01-04T03:58:16.514Z,260
2019-01-04T03:59:16.477Z,260
2019-01-04T04:00:16.413Z,260
2019-01-04T04:01:16.482Z,260
2019-01-04T04:02:16.484Z,260
2019-01-04T04:03:16.548Z,260
2019-01-04T04:04:16.596Z,260
2019-01-04T04:05:16.472Z,260
2019-01-04T04:06:16.387Z,260
2019-01-04T04:07:16.479Z,260
2019-01-04T04:08:16.506Z,260
2019-01-04T04:09:16.491Z,260
2019-01-04T04:10:16.462Z,260
2019-01-04T04:11:16.418Z,260
2019-01-04T04:12:16.542Z,260
2019-01-04T04:13:16.491Z,260
2019-01-04T04:14:16.485Z,260
2019-01-04T04:15:16.497Z,260
2019-01-04T04:16:16.422Z,260
2019-01-04T04:17:16.524Z,260.5
2019-01-04T04:18:16.498Z,260.2
2019-01-04T04:19:16.463Z,260.1
2019-01-04T04:20:16.472Z,260
2019-01-04T04:21:17.077Z,260
2019-01-04T04:22:16.422Z,260
2019-01-04T04:23:16.469Z,260
2019-01-04T04:24:16.504Z,260
2019-01-04T04:25:16.463Z,260
2019-01-04T04:26:16.533Z,260
2019-01-04T04:27:16.378Z,260
2019-01-04T04:28:16.466Z,260
2019-01-04T04:29:16.459Z,260
2019-01-04T04:30:16.496Z,260
2019-01-04T04:31:16.538Z,260
2019-01-04T04:32:16.409Z,260
2019-01-04T04:33:16.456Z,260
2019-01-04T04:34:16.465Z,260
2019-01-04T04:35:16.465Z,260
2019-01-04T04:36:16.514Z,260
2019-01-04T04:37:16.557Z,260
2019-01-04T04:38:16.403Z,260
2019-01-04T04:39:16.443Z,260
2019-01-04T04:40:16.448Z,260
2019-01-04T04:41:16.469Z,260
2019-01-04T04:42:16.531Z,260
2019-01-04T04:43:16.469Z,260
2019-01-04T04:44:16.448Z,260
2019-01-04T04:45:16.459Z,260
2019-01-04T04:46:16.492Z,260
2019-01-04T04:47:16.456Z,260
2019-01-04T04:48:16.438Z,260
2019-01-04T04:49:16.544Z,260
2019-01-04T04:50:16.449Z,260
2019-01-04T04:51:16.525Z,260
2019-01-04T04:52:16.459Z,260
2019-01-04T04:53:16.462Z,260
2019-01-04T04:54:16.466Z,260.9
2019-01-04T04:55:16.389Z,260.4
2019-01-04T04:56:16.464Z,260.2
2019-01-04T04:57:16.498Z,260.1
2019-01-04T04:58:16.435Z,260
2019-01-04T04:59:16.509Z,260
2019-01-04T05:00:16.384Z,260
2019-01-04T05:01:16.487Z,260
2019-01-04T05:02:16.439Z,260
2019-01-04T05:03:16.442Z,260
2019-01-04T05:04:16.443Z,260
2019-01-04T05:05:16.445Z,260
2019-01-04T05:06:16.430Z,260
2019-01-04T05:07:16.434Z,260
2019-01-04T05:08:16.434Z,260
2019-01-04T05:09:16.462Z,260
2019-01-04T05:10:16.507Z,260
2019-01-04T05:11:16.450Z,260
2019-01-04T05:12:16.516Z,260
2019-01-04T05:13:16.445Z,260
2019-01-04T05:14:16.425Z,260
2019-01-04T05:15:16.451Z,260
2019-01-04T05:16:16.448Z,261
2019-01-04T05:17:16.530Z,260.5
2019-01-04T05:18:16.426Z,260.2
2019-01-04T05:19:16.523Z,260.1
2019-01-04T05:20:16.446Z,260
2019-01-04T05:21:16.414Z,260
2019-01-04T05:22:16.419Z,260
2019-01-04T05:23:16.459Z,260
2019-01-04T05:24:16.485Z,260
2019-01-04T05:25:16.463Z,260
2019-01-04T05:26:16.460Z,260
2019-01-04T05:27:16.438Z,260
2019-01-04T05:28:16.467Z,260
2019-01-04T05:29:16.424Z,260
2019-01-04T05:30:16.415Z,260
2019-01-04T05:31:16.444Z,260
2019-01-04T05:32:16.446Z,260
2019-01-04T05:33:16.443Z,260
2019-01-04T05:34:16.410Z,260
2019-01-04T05:35:16.418Z,260
2019-01-04T05:36:16.492Z,260
2019-01-04T05:37:16.508Z,260
2019-01-04T05:38:16.424Z,260
2019-01-04T05:39:16.409Z,260
2019-01-04T05:40:17.566Z,260
2019-01-04T05:41:16.447Z,260
2019-01-04T05:42:16.501Z,260
2019-01-04T05:43:16.364Z,260
2019-01-04T05:44:16.436Z,260
2019-01-04T05:45:16.480Z,260
2019-01-04T05:46:16.418Z,260
2019-01-04T05:47:16.506Z,260
2019-01-04T05:48:16.421Z,260
2019-01-04T05:49:16.370Z,260
2019-01-04T05:50:16.413Z,260
2019-01-04T05:51:16.439Z,260
2019-01-04T05:52:16.522Z,260
2019-01-04T05:53:16.468Z,260
2019-01-04T05:54:16.369Z,260
2019-01-04T05:55:16.416Z,260
2019-01-04T05:56:16.497Z,260
2019-01-04T05:57:16.492Z,260
2019-01-04T05:58:16.505Z,260
2019-01-04T05:59:16.399Z,260
2019-01-04T06:00:16.366Z,260
2019-01-04T06:01:16.431Z,260
2019-01-04T06:02:16.499Z,260
2019-01-04T06:03:16.397Z,260
2019-01-04T06:04:16.426Z,260
2019-01-04T06:05:16.428Z,260
2019-01-04T06:06:16.398Z,260
2019-01-04T06:07:16.409Z,260
2019-01-04T06:08:16.391Z,260
2019-01-04T06:09:16.894Z,260
2019-01-04T06:10:16.502Z,260
2019-01-04T06:11:16.364Z,260
2019-01-04T06:12:16.476Z,260
2019-01-04T06:13:16.402Z,260
2019-01-04T06:14:16.419Z,260
2019-01-04T06:15:16.395Z,260
2019-01-04T06:16:16.347Z,260
2019-01-04T06:17:16.466Z,260
2019-01-04T06:18:16.417Z,260
2019-01-04T06:19:16.414Z,260
2019-01-04T06:20:16.422Z,260
2019-01-04T06:21:16.364Z,260
2019-01-04T06:22:16.551Z,260
2019-01-04T06:23:16.431Z,260
2019-01-04T06:24:16.409Z,260
2019-01-04T06:25:16.466Z,260
2019-01-04T06:26:16.387Z,260
2019-01-04T06:27:16.376Z,260
2019-01-04T06:28:16.398Z,260
2019-01-04T06:29:16.487Z,260
2019-01-04T06:30:16.392Z,260
2019-01-04T06:32:16.981Z,260
2019-01-04T06:33:17.029Z,260
2019-01-04T06:34:17.096Z,260
2019-01-04T06:35:17.127Z,260
2019-01-04T06:36:17.028Z,260
2019-01-04T06:37:17.072Z,260
2019-01-04T06:38:16.991Z,260
2019-01-04T06:39:17.034Z,260
2019-01-04T06:40:17.096Z,260
2019-01-04T06:41:17.035Z,260
2019-01-04T06:42:17.044Z,260
2019-01-04T06:43:16.986Z,260
2019-01-04T06:44:17.073Z,260
2019-01-04T06:45:17.048Z,260
2019-01-04T06:46:17.105Z,260
2019-01-04T06:47:17.039Z,260
2019-01-04T06:48:17.083Z,260
2019-01-04T06:49:16.985Z,260
2019-01-04T06:50:17.047Z,260
2019-01-04T06:51:17.095Z,260
2019-01-04T06:52:17.047Z,260
2019-01-04T06:53:17.142Z,260
2019-01-04T06:54:16.970Z,260
2019-01-04T06:55:17.016Z,260
2019-01-04T06:56:17.016Z,260
2019-01-04T06:57:17.083Z,260
2019-01-04T06:58:17.052Z,260
2019-01-04T06:59:17.254Z,260
2019-01-04T07:00:16.974Z,260
2019-01-04T07:01:17.047Z,260
2019-01-04T07:02:17.004Z,260
2019-01-04T07:03:17.098Z,260
2019-01-04T07:04:17.087Z,260
2019-01-04T07:05:16.977Z,260
2019-01-04T07:06:17.084Z,260
2019-01-04T07:07:17.041Z,260
2019-01-04T07:08:17.028Z,260
2019-01-04T07:09:17.024Z,260
2019-01-04T07:10:17.042Z,260
2019-01-04T07:11:17.028Z,260
2019-01-04T07:12:17.029Z,260
2019-01-04T07:13:17.035Z,260
2019-01-04T07:14:17.026Z,260
2019-01-04T07:15:17.017Z,260
2019-01-04T07:16:17.055Z,260
2019-01-04T07:17:17.013Z,260
2019-01-04T07:18:17.033Z,260
2019-01-04T07:19:17.036Z,260
2019-01-04T07:20:17.031Z,260
2019-01-04T07:21:17.088Z,260
2019-01-04T07:22:18.079Z,260
2019-01-04T07:23:17.024Z,260.5
2019-01-04T07:24:17.064Z,260.2
2019-01-04T07:25:16.992Z,260.1
2019-01-04T07:26:17.087Z,260.1
2019-01-04T07:27:16.971Z,260
2019-01-04T07:28:17.010Z,260
2019-01-04T07:29:17.114Z,260
2019-01-04T07:30:17.075Z,260
2019-01-04T07:31:17.039Z,260
2019-01-04T07:32:16.967Z,260
2019-01-04T07:33:17.010Z,260
2019-01-04T07:34:18.203Z,260
2019-01-04T07:35:17.039Z,260
2019-01-04T07:36:17.022Z,260
2019-01-04T07:37:17.086Z,260
2019-01-04T07:38:16.952Z,260
2019-01-04T07:39:17.149Z,260
2019-01-04T07:40:17.024Z,260
2019-01-04T07:41:17.022Z,260
2019-01-04T07:42:17.013Z,260
2019-01-04T07:43:20.081Z,260
2019-01-04T07:44:17.100Z,260
2019-01-04T07:45:17.017Z,260
2019-01-04T07:46:17.024Z,260
2019-01-04T07:47:17.059Z,260
2019-01-04T07:48:17.034Z,260
2019-01-04T07:49:17.032Z,260
2019-01-04T07:50:17.020Z,260
2019-01-04T07:51:17.111Z,260
2019-01-04T07:52:17.014Z,260
2019-01-04T07:53:17.002Z,260
2019-01-04T07:54:17.017Z,260
2019-01-04T07:55:17.019Z,260
2019-01-04T07:56:17.068Z,260
2019-01-04T07:57:17.029Z,260
2019-01-04T07:58:17.007Z,260
2019-01-04T07:59:17.684Z,260
2019-01-04T08:00:16.969Z,260
2019-01-04T08:01:17.019Z,260
2019-01-04T08:02:17.081Z,260
2019-01-04T08:03:17.086Z,260
2019-01-04T08:04:17.008Z,260
2019-01-04T08:05:16.956Z,260
2019-01-04T08:06:17.013Z,260
2019-01-04T08:07:17.117Z,260
2019-01-04T08:08:16.991Z,260
2019-01-04T08:09:17.029Z,260
2019-01-04T08:10:16.971Z,260
2019-01-04T08:11:17.030Z,260
2019-01-04T08:12:17.010Z,260
2019-01-04T08:13:17.009Z,260
2019-01-04T08:14:16.962Z,260
2019-01-04T08:15:17.085Z,260
2019-01-04T08:16:16.920Z,260
2019-01-04T08:17:17.016Z,260
2019-01-04T08:18:17.064Z,260
2019-01-04T08:19:17.018Z,260
2019-01-04T08:20:16.990Z,260
2019-01-04T08:21:16.968Z,260
2019-01-04T08:22:17.531Z,260
2019-01-04T08:23:17.329Z,260
2019-01-04T08:24:16.938Z,260
2019-01-04T08:25:19.304Z,260
2019-01-04T08:26:16.934Z,260.5
2019-01-04T08:27:16.999Z,260.2
2019-01-04T08:28:17.077Z,260.1
2019-01-04T08:29:16.930Z,260.1
2019-01-04T08:30:16.980Z,260
2019-01-04T08:31:16.995Z,260
2019-01-04T08:32:16.975Z,249.8
2019-01-04T08:33:17.084Z,243
2019-01-04T08:34:17.009Z,240.1
2019-01-04T08:35:17.308Z,237.6
2019-01-04T08:36:17.205Z,236
2019-01-04T08:37:16.908Z,237.4
2019-01-04T08:38:16.994Z,225.4
2019-01-04T08:39:16.985Z,219.7
2019-01-04T08:40:17.287Z,217.2
2019-01-04T08:41:17.053Z,216
2019-01-04T08:42:17.049Z,215.5
2019-01-04T08:43:16.983Z,215.2
2019-01-04T08:44:16.915Z,215.1
2019-01-04T08:45:16.984Z,215
2019-01-04T08:46:16.984Z,215
2019-01-04T08:47:17.038Z,215
2019-01-04T08:48:18.327Z,215
2019-01-04T08:49:16.937Z,215.3
2019-01-04T08:50:17.517Z,215.1
2019-01-04T08:51:17.077Z,215.1
2019-01-04T08:52:16.961Z,215
2019-01-04T08:53:17.039Z,215
2019-01-04T08:54:16.943Z,215
2019-01-04T08:55:16.990Z,215
2019-01-04T08:56:16.997Z,215
2019-01-04T08:57:17.064Z,215
2019-01-04T08:58:17.059Z,215
2019-01-04T08:59:19.339Z,215
2019-01-04T09:00:16.974Z,215.3
2019-01-04T09:01:16.959Z,215.1
2019-01-04T09:02:17.016Z,215.1
2019-01-04T09:03:16.982Z,215
2019-01-04T09:04:17.052Z,215
2019-01-04T09:05:16.926Z,215
2019-01-04T09:06:16.964Z,215
2019-01-04T09:07:17.006Z,215
2019-01-04T09:08:16.973Z,215
2019-01-04T09:09:17.588Z,215
2019-01-04T09:10:17.000Z,215
2019-01-04T09:11:16.988Z,215
2019-01-04T09:12:16.985Z,215
2019-01-04T09:13:17.003Z,215
2019-01-04T09:14:16.914Z,215
2019-01-04T09:15:16.925Z,215
2019-01-04T09:16:16.920Z,215
2019-01-04T09:17:16.962Z,215
2019-01-04T09:18:17.023Z,215
2019-01-04T09:19:16.964Z,215
2019-01-04T09:20:16.946Z,215
2019-01-04T09:21:16.938Z,215
2019-01-04T09:22:18.198Z,215
2019-01-04T09:23:17.034Z,215
2019-01-04T09:24:16.993Z,215
2019-01-04T09:25:17.031Z,215
2019-01-04T09:26:16.962Z,215
2019-01-04T09:27:16.899Z,215
2019-01-04T09:28:21.607Z,215
2019-01-04T09:29:16.980Z,216.3
2019-01-04T09:30:16.911Z,187.6
2019-01-04T09:31:16.961Z,177.3
2019-01-04T09:32:16.894Z,173.2
2019-01-04T09:33:16.957Z,172.6
2019-01-04T09:34:16.946Z,183.3
2019-01-04T09:35:16.943Z,188.3
2019-01-04T09:36:16.961Z,190.5
2019-01-04T09:37:16.952Z,191.6
2019-01-04T09:38:16.942Z,192.1
2019-01-04T09:39:16.938Z,192.3
2019-01-04T09:40:16.955Z,192.4
2019-01-04T09:41:16.985Z,192.5
2019-01-04T09:42:17.025Z,192.5
2019-01-04T09:43:16.902Z,192.5
2019-01-04T09:44:17.023Z,192.5
2019-01-04T09:45:16.877Z,192.5
2019-01-04T09:46:17.178Z,195.1
2019-01-04T09:47:16.933Z,204.7
2019-01-04T09:48:16.957Z,186
2019-01-04T09:49:21.975Z,185.7
2019-01-04T09:50:16.885Z,209.7
2019-01-04T09:51:17.143Z,233.6
2019-01-04T09:52:16.874Z,236
2019-01-04T09:53:17.042Z,236.8
2019-01-04T09:54:22.105Z,237.2
2019-01-04T09:55:16.944Z,237.4
2019-01-04T09:56:16.938Z,237.4
2019-01-04T09:57:16.933Z,237.5
2019-01-04T09:58:16.956Z,237.5
2019-01-04T09:59:17.128Z,237.5
2019-01-04T10:00:17.026Z,242.8
2019-01-04T10:01:16.934Z,252
2019-01-04T10:02:17.461Z,256.3
2019-01-04T10:03:18.055Z,258.3
2019-01-04T10:04:18.602Z,259.2
2019-01-04T10:05:19.230Z,260.1
2019-01-04T10:06:17.024Z,260.6
2019-01-04T10:07:16.952Z,260.3
2019-01-04T10:08:17.013Z,260.1
2019-01-04T10:09:16.909Z,260.1
2019-01-04T10:10:16.906Z,260
2019-01-04T10:11:16.877Z,259
2019-01-04T10:12:16.948Z,259.5
2019-01-04T10:13:16.960Z,260.3
2019-01-04T10:14:16.925Z,256.6
2019-01-04T10:15:16.869Z,245.7
2019-01-04T10:16:17.657Z,244
2019-01-04T10:17:16.943Z,249.9
2019-01-04T10:18:17.023Z,243.8
2019-01-04T10:19:21.687Z,248
2019-01-04T10:20:18.916Z,253.5
2019-01-04T10:21:17.458Z,256
2019-01-04T10:22:16.874Z,258.7
2019-01-04T10:23:17.001Z,259.4
2019-01-04T10:24:16.866Z,258.6
2019-01-04T10:25:16.880Z,254.8
2019-01-04T10:26:17.503Z,240.1
2019-01-04T10:27:16.863Z,226.4
2019-01-04T10:28:16.882Z,220.2
2019-01-04T10:29:17.101Z,217.4
2019-01-04T10:30:16.958Z,216.1
2019-01-04T10:31:16.952Z,215.5
2019-01-04T10:32:16.879Z,215.2
2019-01-04T10:33:16.893Z,215.1
2019-01-04T10:34:16.888Z,215.1
2019-01-04T10:35:17.144Z,215
2019-01-04T10:36:21.143Z,215
2019-01-04T10:37:16.871Z,215.6
2019-01-04T10:38:16.864Z,241.1
2019-01-04T10:39:19.156Z,278.5
2019-01-04T10:40:16.957Z,302.7
2019-01-04T10:41:16.917Z,303.3
2019-01-04T10:42:16.835Z,330.5
2019-01-04T10:43:16.854Z,298.7
2019-01-04T10:44:16.983Z,261.3
2019-01-04T10:45:16.894Z,247.1
2019-01-04T10:46:17.005Z,241.7
2019-01-04T10:47:16.907Z,240.8
2019-01-04T10:48:16.832Z,239.6
2019-01-04T10:49:16.837Z,248.3
2019-01-04T10:50:16.951Z,234.6
2019-01-04T10:51:16.909Z,225.5
2019-01-04T10:52:17.786Z,226
2019-01-04T10:53:16.937Z,228.7
2019-01-04T10:54:16.850Z,232
2019-01-04T10:55:16.970Z,233.4
2019-01-04T10:56:16.913Z,223.5
2019-01-04T10:57:16.945Z,219
2019-01-04T10:58:16.994Z,216.8
2019-01-04T10:59:16.911Z,215.9
2019-01-04T11:00:16.870Z,215.4
2019-01-04T11:01:16.923Z,215.2
2019-01-04T11:02:16.909Z,215.1
2019-01-04T11:03:16.899Z,215
2019-01-04T11:04:16.896Z,215
2019-01-04T11:05:16.840Z,215
2019-01-04T11:06:16.971Z,215
2019-01-04T11:07:16.912Z,215
2019-01-04T11:08:16.904Z,215
2019-01-04T11:09:16.931Z,215.3
2019-01-04T11:10:16.837Z,215.1
2019-01-04T11:11:16.900Z,215.1
2019-01-04T11:12:18.270Z,215
2019-01-04T11:13:16.887Z,215
2019-01-04T11:14:16.903Z,215
2019-01-04T11:15:16.982Z,215
2019-01-04T11:16:16.946Z,227
2019-01-04T11:17:17.051Z,232.6
2019-01-04T11:18:16.879Z,235.2
2019-01-04T11:19:16.967Z,236.4
2019-01-04T11:20:16.870Z,241.8
2019-01-04T11:21:16.927Z,243
2019-01-04T11:22:16.835Z,251.7
2019-01-04T11:23:17.314Z,247.6
2019-01-04T11:24:17.177Z,229.8
2019-01-04T11:25:16.886Z,221.7
2019-01-04T11:26:16.870Z,218.1
2019-01-04T11:27:16.839Z,216.4
2019-01-04T11:28:16.898Z,215.7
2019-01-04T11:29:17.020Z,215.3
2019-01-04T11:30:16.859Z,215.1
2019-01-04T11:31:16.935Z,215.1
2019-01-04T11:32:16.800Z,215
2019-01-04T11:33:16.893Z,215
2019-01-04T11:34:17.016Z,215
2019-01-04T11:35:16.866Z,215
2019-01-04T11:36:17.198Z,215
2019-01-04T11:37:16.836Z,215
2019-01-04T11:38:16.875Z,215
2019-01-04T11:39:16.945Z,215
2019-01-04T11:40:16.957Z,215
2019-01-04T11:41:17.761Z,215
2019-01-04T11:42:16.883Z,215
2019-01-04T11:43:16.818Z,215
2019-01-04T11:44:16.966Z,215
2019-01-04T11:45:16.873Z,215
2019-01-04T11:46:16.863Z,215
2019-01-04T11:47:22.520Z,215
2019-01-04T11:48:16.813Z,215
2019-01-04T11:49:16.948Z,215
2019-01-04T11:50:16.865Z,215
2019-01-04T11:51:16.854Z,215
2019-01-04T11:52:16.867Z,215
2019-01-04T11:53:16.867Z,215
2019-01-04T11:54:16.880Z,215
2019-01-04T11:55:16.933Z,215
2019-01-04T11:56:17.028Z,215
2019-01-04T11:57:16.877Z,215
2019-01-04T11:58:16.876Z,215
2019-01-04T11:59:16.817Z,215
2019-01-04T12:00:16.882Z,215
2019-01-04T12:01:16.861Z,215
2019-01-04T12:02:16.873Z,215
2019-01-04T12:03:16.859Z,215
2019-01-04T12:04:16.906Z,215
2019-01-04T12:05:16.883Z,215
2019-01-04T12:06:16.921Z,215
2019-01-04T12:07:16.859Z,215
2019-01-04T12:08:16.885Z,215
2019-01-04T12:09:16.859Z,215
2019-01-04T12:10:16.818Z,215
2019-01-04T12:11:16.888Z,215
2019-01-04T12:12:16.851Z,215
2019-01-04T12:13:16.858Z,215
2019-01-04T12:14:16.853Z,215
2019-01-04T12:15:16.880Z,215
2019-01-04T12:16:16.838Z,215
2019-01-04T12:17:16.962Z,215
2019-01-04T12:18:16.837Z,215
2019-01-04T12:19:16.870Z,215
2019-01-04T12:20:16.897Z,215
2019-01-04T12:21:16.796Z,215
2019-01-04T12:22:16.889Z,215
2019-01-04T12:23:16.894Z,215.4
2019-01-04T12:24:16.884Z,215.2
2019-01-04T12:25:16.855Z,215.1
2019-01-04T12:26:17.277Z,215
2019-01-04T12:27:16.840Z,215
2019-01-04T12:28:16.847Z,215
2019-01-04T12:29:16.909Z,225.9
2019-01-04T12:30:16.835Z,232.1
2019-01-04T12:31:17.366Z,240.4
2019-01-04T12:32:16.943Z,251
2019-01-04T12:33:20.503Z,243.4
2019-01-04T12:34:20.387Z,241.1
2019-01-04T12:35:17.247Z,241.8
2019-01-04T12:36:17.021Z,249.1
2019-01-04T12:37:17.449Z,240.5
2019-01-04T12:38:16.984Z,226.5
2019-01-04T12:39:17.076Z,220.2
2019-01-04T12:40:17.005Z,219.6
2019-01-04T12:41:17.093Z,214.4
2019-01-04T12:42:17.074Z,210.9
2019-01-04T12:43:17.021Z,196.6
2019-01-04T12:44:17.091Z,194.4
2019-01-04T12:45:16.992Z,193.4
2019-01-04T12:46:17.036Z,192.9
2019-01-04T12:47:17.130Z,192.7
2019-01-04T12:48:17.032Z,192.6
2019-01-04T12:49:16.947Z,192.5
2019-01-04T12:50:16.989Z,192.5
2019-01-04T12:51:17.021Z,192.5
2019-01-04T12:52:17.071Z,192.5
2019-01-04T12:53:16.970Z,192.5
2019-01-04T12:54:16.944Z,192.5
2019-01-04T12:55:17.013Z,192.5
2019-01-04T12:56:16.934Z,181.1
2019-01-04T12:57:17.035Z,175.1
2019-01-04T12:58:16.954Z,172.4
2019-01-04T12:59:16.782Z,171.1
2019-01-04T13:00:16.800Z,170.5
2019-01-04T13:01:16.762Z,170.2
2019-01-04T13:02:17.429Z,170.1
2019-01-04T13:03:17.464Z,154.6
2019-01-04T13:04:17.002Z,138.3
2019-01-04T13:05:16.981Z,131
2019-01-04T13:06:17.023Z,127.8
2019-01-04T13:07:16.997Z,162.2
2019-01-04T13:08:18.779Z,203.3
2019-01-04T13:09:16.968Z,210.7
2019-01-04T13:10:18.826Z,213.2
2019-01-04T13:11:16.928Z,214.2
2019-01-04T13:12:16.987Z,214.6
2019-01-04T13:13:16.902Z,214.8
2019-01-04T13:14:17.000Z,214.9
2019-01-04T13:15:17.033Z,215
2019-01-04T13:16:16.994Z,215
2019-01-04T13:17:17.000Z,218.1
2019-01-04T13:18:16.975Z,228.5
2019-01-04T13:19:17.025Z,233.3
2019-01-04T13:20:16.973Z,235.6
2019-01-04T13:21:16.877Z,245.2
2019-01-04T13:22:17.001Z,253.2
2019-01-04T13:23:17.064Z,257.4
2019-01-04T13:24:16.966Z,250.1
2019-01-04T13:25:17.043Z,257.1
2019-01-04T13:26:20.910Z,263.7
2019-01-04T13:27:16.745Z,252
2019-01-04T13:28:16.799Z,230.7
2019-01-04T13:29:16.815Z,221.8
2019-01-04T13:30:16.805Z,218.1
2019-01-04T13:31:16.883Z,228.6